Pagina principale
METAR-TAF:

METAR-TAF

Aeroporti :

Zaqatala, Azerbaigian

latitudine: 41-33-44N, longitudine: 46-40-02E, altezza: 330 m

Osservazione

Il bollettino è stato emesso 52 minuti fa, alle 23:00 UTC
Vento 6 kt da est/sud-est
Temperature 22°C
Umidità 65%
Pressione 1016 hPa
Visibilità 10 km o più
Poco nuvoloso ad un'altezza di 5000 ft, Cumulonembo.
Nuvoloso ad un'altezza di 10000 ft

METAR: UBBY 302300Z 12006KT 9999 FEW050CB BKN100 22/15 Q1016 R33/////// NOSIG RMK MT OP

Ora: 03:52 (23:52 UTC)

Previsione

Il bollettino è stato emesso 48 minuti fa, alle 23:04 UTC
Previsione valida dal 31 alle 00 UTC al 31 alle 09 UTC
Vento 4 kt da direzioni variabili
Visibilità 10 km o più
Poco nuvoloso ad un'altezza di 4000 ft, Cumulonembo.
Nubi sparse ad un'altezza di 10000 ft
Temporaneamente
dal 31 alle 00 UTC al 31 alle 04 UTC
Vento 8 kt da est/sud-est

TAF: UBBY 302304Z 3100/3109 VRB04KT 9999 FEW040CB SCT100 TEMPO 3100/3104 12008KT

Osservazioni e previsioni meteorologiche di più di 4000 aeroporti (messaggi METAR e TAF).

Le stazioni disponibili sono rappresentate dai dischi gialli e rossi sulla carta.

Puntare il mouse per vedere il nome della stazione.

Clicca sopra per visualizzare le osservazioni e previsioni meteorologiche.

Per cambiare la mappa : fare clic sui pulsanti verdi con una croce nera per ingrandire, il pulsante verde con un trattino per diminuire, o sulla freccia verde per le mappe adiacenti.


METAR-TAF: